Big Bear Station Historical Data
Daily Summary for January 26, 2020 Units:  Metric    English   Both
Next Day »
Daily Weekly Monthly Yearly Custom
  High: Low: Average:
Temperature: 9 °C -2.1 °C 2.4 °C
Dew Point: 2.4 °C -2.9 °C -0.5 °C
Humidity: 98% 56% 82%
Wind Speed: 15.9km/h 0km/h 2.7km/h
Wind Gust: -1607.7km/h - -
Wind- - WNW
Pressure: 798.8 hPa 796 hPa -
Precipitation: 0 mm    
Historical Graphs
 
 
Tabular Data for January 26, 2020
Time Temperature Dew Point Pressure Wind Wind Speed Wind Gust Humidity Rainfall Rate (Hourly)
00:09 -1 °C -2 °C 798.8 hPa Calm   -1607.7 km/h 93% 0 mm
00:25 -1.2 °C -2.2 °C 798.8 hPa Calm   -1607.7 km/h 93% 0 mm
00:40 -1.2 °C -2.2 °C 798.4 hPa Calm   -1607.7 km/h 93% 0 mm
00:55 -1.1 °C -2.2 °C 798.4 hPa Calm   -1607.7 km/h 92% 0 mm
01:10 -1.3 °C -2.3 °C 798.4 hPa Calm   -1607.7 km/h 93% 0 mm
01:25 -1.3 °C -2.3 °C 798.4 hPa Calm   -1607.7 km/h 93% 0 mm
01:41 -1.3 °C -2.3 °C 798.4 hPa Calm   -1607.7 km/h 93% 0 mm
01:56 -1.5 °C -2.5 °C 798.1 hPa Calm   -1607.7 km/h 93% 0 mm
02:11 -1.3 °C -2.4 °C 798.1 hPa South 1.8 km/h -1607.7 km/h 92% 0 mm
02:26 -1.7 °C -2.8 °C 798.1 hPa Calm   -1607.7 km/h 92% 0 mm
02:42 -1.5 °C -2.5 °C 798.1 hPa Calm   -1607.7 km/h 93% 0 mm
02:57 -1.7 °C -2.6 °C 798.1 hPa Calm   -1607.7 km/h 94% 0 mm
03:12 -1.6 °C -2.2 °C 798.1 hPa Calm   -1607.7 km/h 96% 0 mm
03:27 -1.8 °C -2.3 °C 798.1 hPa Calm   -1607.7 km/h 96% 0 mm
03:43 -1.8 °C -2.2 °C 797.7 hPa Calm   -1607.7 km/h 97% 0 mm
03:58 -1.7 °C -2.3 °C 797.7 hPa Calm   -1607.7 km/h 96% 0 mm
04:13 -1.5 °C -2.6 °C 797.7 hPa Calm   -1607.7 km/h 92% 0 mm
04:29 -1.8 °C -2.5 °C 797.7 hPa Calm   -1607.7 km/h 95% 0 mm
04:44 -1.8 °C -2.5 °C 797.7 hPa Calm   -1607.7 km/h 95% 0 mm
04:59 -1.6 °C -2.9 °C 797.7 hPa Calm   -1607.7 km/h 91% 0 mm
05:14 -1.9 °C -2.7 °C 797.7 hPa Calm   -1607.7 km/h 94% 0 mm
05:29 -2 °C -2.6 °C 797.7 hPa Calm   -1607.7 km/h 96% 0 mm
05:45 -1.8 °C -2.3 °C 797.7 hPa Calm   -1607.7 km/h 96% 0 mm
06:00 -1.9 °C -2.6 °C 797.7 hPa Calm   -1607.7 km/h 95% 0 mm
06:15 -2.1 °C -2.5 °C 797.7 hPa Calm   -1607.7 km/h 97% 0 mm
06:30 -2 °C -2.4 °C 797.7 hPa Calm   -1607.7 km/h 97% 0 mm
06:45 -2.1 °C -2.4 °C 797.7 hPa Calm   -1607.7 km/h 98% 0 mm
07:01 -2 °C -2.3 °C 797.7 hPa Calm   -1607.7 km/h 98% 0 mm
07:16 -2.1 °C -2.5 °C 798.1 hPa Calm   -1607.7 km/h 97% 0 mm
07:31 -2 °C -2.3 °C 798.1 hPa Calm   -1607.7 km/h 98% 0 mm
07:46 -1.7 °C -2 °C 798.1 hPa Calm   -1607.7 km/h 98% 0 mm
08:02 -1.2 °C -1.5 °C 798.1 hPa Calm   -1607.7 km/h 98% 0 mm
08:17 -1 °C -1.3 °C 798.1 hPa Calm   -1607.7 km/h 98% 0 mm
08:32 0.2 °C -0.1 °C 798.1 hPa Calm   -1607.7 km/h 98% 0 mm
08:47 1.6 °C 1.2 °C 798.1 hPa Calm   -1607.7 km/h 97% 0 mm
09:02 2.8 °C 2.2 °C 798.1 hPa Calm   -1607.7 km/h 96% 0 mm
09:18 4.4 °C 2.3 °C 798.1 hPa Calm   -1607.7 km/h 86% 0 mm
09:33 5.9 °C 1.1 °C 798.4 hPa WNW 3.5 km/h -1607.7 km/h 71% 0 mm
09:48 6.8 °C -0.4 °C 798.4 hPa NW 3.5 km/h -1607.7 km/h 60% 0 mm
10:03 7.6 °C -0.6 °C 798.4 hPa Calm   -1607.7 km/h 56% 0 mm
10:18 8 °C 0 °C 798.4 hPa NNW 5.1 km/h -1607.7 km/h 57% 0 mm
10:34 7.5 °C 0.7 °C 798.8 hPa WNW 1.8 km/h -1607.7 km/h 62% 0 mm
10:49 7.3 °C 1.1 °C 798.4 hPa NW 3.5 km/h -1607.7 km/h 65% 0 mm
11:04 7.8 °C 0.7 °C 798.4 hPa NW 5.1 km/h -1607.7 km/h 61% 0 mm
11:19 8.4 °C 0.3 °C 798.1 hPa WNW 6.8 km/h -1607.7 km/h 57% 0 mm
11:34 8.5 °C 0.7 °C 797.7 hPa NW 4.3 km/h -1607.7 km/h 58% 0 mm
11:50 8.1 °C 1.3 °C 797.7 hPa WNW 5.1 km/h -1607.7 km/h 62% 0 mm
12:05 7.7 °C 2 °C 797.7 hPa SSW 4.3 km/h -1607.7 km/h 67% 0 mm
12:20 7.6 °C 1.7 °C 797.4 hPa NW 5.1 km/h -1607.7 km/h 66% 0 mm
12:36 8.2 °C 1.8 °C 797.4 hPa NW 4.3 km/h -1607.7 km/h 64% 0 mm
12:51 8.2 °C 0.7 °C 797.1 hPa North 6 km/h -1607.7 km/h 59% 0 mm
13:06 9 °C 1.4 °C 797.1 hPa NW 6 km/h -1607.7 km/h 59% 0 mm
13:21 8.5 °C 1.6 °C 796.7 hPa West 5.1 km/h -1607.7 km/h 62% 0 mm
13:37 8 °C 1.8 °C 796.7 hPa NNW 7.6 km/h -1607.7 km/h 65% 0 mm
13:52 8.2 °C 1.8 °C 796.7 hPa Calm   -1607.7 km/h 64% 0 mm
14:07 7.8 °C 1.8 °C 796.7 hPa Calm   -1607.7 km/h 66% 0 mm
14:22 8.3 °C 2.1 °C 796.7 hPa Calm   -1607.7 km/h 65% 0 mm
14:38 8.4 °C 2.4 °C 796.4 hPa NW 5.1 km/h -1607.7 km/h 66% 0 mm
14:53 7.7 °C 2 °C 796.4 hPa NNW 5.1 km/h -1607.7 km/h 67% 0 mm
15:09 7.3 °C 1.8 °C 796 hPa NE 7.6 km/h -1607.7 km/h 68% 0 mm
15:24 6.9 °C 1.8 °C 796.4 hPa NW 8.5 km/h -1607.7 km/h 70% 0 mm
15:39 6.8 °C 1.5 °C 796.4 hPa NNW 4.3 km/h -1607.7 km/h 69% 0 mm
15:55 6.5 °C 1 °C 796 hPa Calm   -1607.7 km/h 68% 0 mm
16:10 6.1 °C 0.2 °C 796.4 hPa NW 6 km/h -1607.7 km/h 66% 0 mm
16:25 5.8 °C 0.1 °C 796.4 hPa Calm   -1607.7 km/h 67% 0 mm
16:40 5.4 °C 0.7 °C 796 hPa Calm   -1607.7 km/h 72% 0 mm
16:56 4.9 °C 1.9 °C 796.4 hPa Calm   -1607.7 km/h 81% 0 mm
17:11 4.7 °C 2.4 °C 796.4 hPa NNE 4.3 km/h -1607.7 km/h 85% 0 mm
17:26 4.3 °C 2.4 °C 796.7 hPa NW 7.6 km/h -1607.7 km/h 88% 0 mm
17:42 3.6 °C 2.1 °C 797.1 hPa SE 4.3 km/h -1607.7 km/h 90% 0 mm
17:57 3.2 °C 1.7 °C 797.4 hPa SW 9.3 km/h -1607.7 km/h 90% 0 mm
18:12 2.9 °C 1.4 °C 797.1 hPa NW 7.6 km/h -1607.7 km/h 90% 0 mm
18:28 2.7 °C 1.2 °C 797.1 hPa NW 3.5 km/h -1607.7 km/h 90% 0 mm
18:44 2.6 °C 1.1 °C 797.1 hPa NW 4.3 km/h -1607.7 km/h 90% 0 mm
18:59 2.3 °C 0.9 °C 797.4 hPa WNW 3.5 km/h -1607.7 km/h 91% 0 mm
19:14 2 °C 0.7 °C 797.1 hPa Calm   -1607.7 km/h 91% 0 mm
19:29 1.7 °C 0.1 °C 797.1 hPa Calm   -1607.7 km/h 89% 0 mm
19:45 2 °C -1.4 °C 797.1 hPa NNE 3.5 km/h -1607.7 km/h 78% 0 mm
20:00 1.7 °C -0.1 °C 797.4 hPa NNW 6.8 km/h -1607.7 km/h 88% 0 mm
20:15 1.6 °C -0.8 °C 797.4 hPa North 8.5 km/h -1607.7 km/h 84% 0 mm
20:30 1.5 °C -0.7 °C 797.7 hPa NW 7.6 km/h -1607.7 km/h 85% 0 mm
20:45 1.5 °C -1.4 °C 797.7 hPa NNW 12.6 km/h -1607.7 km/h 81% 0 mm
21:01 1.7 °C -0.8 °C 797.7 hPa NNW 10.9 km/h -1607.7 km/h 83% 0 mm
21:16 1.6 °C -1.1 °C 797.7 hPa NNW 10.1 km/h -1607.7 km/h 82% 0 mm
21:32 1.8 °C -1.3 °C 797.7 hPa NNW 10.9 km/h -1607.7 km/h 80% 0 mm
21:47 2.2 °C -1.2 °C 797.7 hPa West 15.9 km/h -1607.7 km/h 78% 0 mm
22:02 2.4 °C -1.6 °C 797.7 hPa NNW 7.6 km/h -1607.7 km/h 75% 0 mm
22:18 1.9 °C -1.4 °C 798.1 hPa Calm   -1607.7 km/h 79% 0 mm
22:33 1.1 °C -1.9 °C 798.1 hPa Calm   -1607.7 km/h 80% 0 mm
22:48 0.4 °C -2.2 °C 798.4 hPa NW 4.3 km/h -1607.7 km/h 83% 0 mm
23:03 1 °C -1.7 °C 798.4 hPa Calm   -1607.7 km/h 82% 0 mm
23:18 0 °C -2.6 °C 798.4 hPa Calm   -1607.7 km/h 83% 0 mm
23:34 -0.6 °C -2.5 °C 798.4 hPa Calm   -1607.7 km/h 87% 0 mm
23:49 -0.9 °C -2.6 °C 798.4 hPa Calm   -1607.7 km/h 88% 0 mm
Big Bear CA Weather